sensor_id;sensor_type;location;lat;lon;timestamp;pressure;altitude;pressure_sealevel;temperature;humidity
24230;BME280;12362;50.004;8.006;2023-06-10T00:01:24;100216.94;;;20.83;100.00
24230;BME280;12362;50.004;8.006;2023-06-10T00:03:52;100217.38;;;20.78;100.00
24230;BME280;12362;50.004;8.006;2023-06-10T00:06:18;100218.88;;;20.71;100.00
24230;BME280;12362;50.004;8.006;2023-06-10T00:08:43;100220.00;;;20.69;100.00
24230;BME280;12362;50.004;8.006;2023-06-10T00:11:09;100210.56;;;20.66;100.00
24230;BME280;12362;50.004;8.006;2023-06-10T00:13:35;100207.63;;;20.69;100.00
24230;BME280;12362;50.004;8.006;2023-06-10T00:16:01;100212.19;;;20.67;100.00
24230;BME280;12362;50.004;8.006;2023-06-10T00:18:26;100209.03;;;20.64;100.00
24230;BME280;12362;50.004;8.006;2023-06-10T00:20:52;100211.41;;;20.57;100.00
24230;BME280;12362;50.004;8.006;2023-06-10T00:23:21;100215.69;;;20.58;100.00
24230;BME280;12362;50.004;8.006;2023-06-10T00:25:46;100206.53;;;20.53;100.00
24230;BME280;12362;50.004;8.006;2023-06-10T00:28:12;100210.47;;;20.39;100.00
24230;BME280;12362;50.004;8.006;2023-06-10T00:30:38;100213.09;;;20.20;100.00
24230;BME280;12362;50.004;8.006;2023-06-10T00:33:04;100220.19;;;20.11;100.00
24230;BME280;12362;50.004;8.006;2023-06-10T00:35:29;100214.66;;;20.13;100.00
24230;BME280;12362;50.004;8.006;2023-06-10T00:37:55;100222.56;;;20.13;100.00
24230;BME280;12362;50.004;8.006;2023-06-10T00:40:20;100217.81;;;20.08;100.00
24230;BME280;12362;50.004;8.006;2023-06-10T00:42:46;100224.47;;;19.93;100.00
24230;BME280;12362;50.004;8.006;2023-06-10T00:45:11;100225.56;;;19.81;100.00
24230;BME280;12362;50.004;8.006;2023-06-10T00:47:37;100222.59;;;19.65;100.00
24230;BME280;12362;50.004;8.006;2023-06-10T00:50:04;100235.03;;;19.44;100.00
24230;BME280;12362;50.004;8.006;2023-06-10T00:52:30;100232.09;;;19.37;100.00
24230;BME280;12362;50.004;8.006;2023-06-10T00:54:56;100233.03;;;19.27;100.00
24230;BME280;12362;50.004;8.006;2023-06-10T00:57:22;100228.88;;;19.04;100.00
24230;BME280;12362;50.004;8.006;2023-06-10T00:59:48;100239.13;;;18.77;100.00
24230;BME280;12362;50.004;8.006;2023-06-10T01:02:14;100238.31;;;18.56;100.00
24230;BME280;12362;50.004;8.006;2023-06-10T01:04:40;100238.75;;;18.41;100.00
24230;BME280;12362;50.004;8.006;2023-06-10T01:07:25;100234.03;;;18.35;100.00
24230;BME280;12362;50.004;8.006;2023-06-10T01:10:08;100245.16;;;18.48;100.00
24230;BME280;12362;50.004;8.006;2023-06-10T01:12:43;100242.59;;;18.37;100.00
24230;BME280;12362;50.004;8.006;2023-06-10T01:15:17;100235.81;;;18.34;100.00
24230;BME280;12362;50.004;8.006;2023-06-10T01:18:02;100247.72;;;18.07;100.00
24230;BME280;12362;50.004;8.006;2023-06-10T01:20:31;100246.84;;;17.86;100.00
24230;BME280;12362;50.004;8.006;2023-06-10T01:23:01;100252.81;;;17.77;100.00
24230;BME280;12362;50.004;8.006;2023-06-10T01:25:29;100253.69;;;17.67;100.00
24230;BME280;12362;50.004;8.006;2023-06-10T01:31:02;100260.63;;;17.24;100.00
24230;BME280;12362;50.004;8.006;2023-06-10T01:33:36;100257.91;;;17.15;100.00
24230;BME280;12362;50.004;8.006;2023-06-10T01:36:03;100257.91;;;17.04;100.00
24230;BME280;12362;50.004;8.006;2023-06-10T01:38:36;100257.03;;;17.03;100.00
24230;BME280;12362;50.004;8.006;2023-06-10T01:41:05;100257.63;;;16.96;100.00
24230;BME280;12362;50.004;8.006;2023-06-10T01:43:33;100264.91;;;16.92;100.00
24230;BME280;12362;50.004;8.006;2023-06-10T01:46:00;100260.13;;;16.86;100.00
24230;BME280;12362;50.004;8.006;2023-06-10T01:48:25;100261.91;;;16.86;100.00
24230;BME280;12362;50.004;8.006;2023-06-10T01:50:51;100270.00;;;16.83;100.00
24230;BME280;12362;50.004;8.006;2023-06-10T01:53:16;100266.19;;;16.76;100.00
24230;BME280;12362;50.004;8.006;2023-06-10T01:55:41;100257.81;;;16.71;100.00
24230;BME280;12362;50.004;8.006;2023-06-10T01:58:07;100264.28;;;16.67;100.00
24230;BME280;12362;50.004;8.006;2023-06-10T02:00:32;100258.19;;;16.66;100.00
24230;BME280;12362;50.004;8.006;2023-06-10T02:03:00;100263.44;;;16.77;100.00
24230;BME280;12362;50.004;8.006;2023-06-10T02:05:25;100265.75;;;16.93;100.00
24230;BME280;12362;50.004;8.006;2023-06-10T02:07:51;100261.91;;;16.97;100.00
24230;BME280;12362;50.004;8.006;2023-06-10T02:10:16;100261.09;;;16.96;100.00
24230;BME280;12362;50.004;8.006;2023-06-10T02:12:42;100258.47;;;16.85;100.00
24230;BME280;12362;50.004;8.006;2023-06-10T02:15:07;100266.44;;;16.84;100.00
24230;BME280;12362;50.004;8.006;2023-06-10T02:17:33;100268.59;;;16.79;100.00
24230;BME280;12362;50.004;8.006;2023-06-10T02:19:58;100261.69;;;16.43;100.00
24230;BME280;12362;50.004;8.006;2023-06-10T02:22:25;100272.75;;;16.13;100.00
24230;BME280;12362;50.004;8.006;2023-06-10T02:24:50;100270.72;;;15.93;100.00
24230;BME280;12362;50.004;8.006;2023-06-10T02:27:18;100280.97;;;15.96;100.00
24230;BME280;12362;50.004;8.006;2023-06-10T02:29:44;100274.13;;;16.06;100.00
24230;BME280;12362;50.004;8.006;2023-06-10T02:32:10;100272.69;;;16.02;100.00
24230;BME280;12362;50.004;8.006;2023-06-10T02:34:35;100273.97;;;15.96;100.00
24230;BME280;12362;50.004;8.006;2023-06-10T02:37:02;100283.50;;;15.97;100.00
24230;BME280;12362;50.004;8.006;2023-06-10T02:39:29;100283.22;;;15.89;100.00
24230;BME280;12362;50.004;8.006;2023-06-10T02:41:55;100286.16;;;15.85;100.00
24230;BME280;12362;50.004;8.006;2023-06-10T02:44:21;100291.06;;;15.89;100.00
24230;BME280;12362;50.004;8.006;2023-06-10T02:46:46;100292.41;;;15.95;100.00
24230;BME280;12362;50.004;8.006;2023-06-10T02:49:12;100296.75;;;15.83;100.00
24230;BME280;12362;50.004;8.006;2023-06-10T02:51:38;100289.56;;;15.74;100.00
24230;BME280;12362;50.004;8.006;2023-06-10T02:54:04;100298.44;;;15.72;100.00
24230;BME280;12362;50.004;8.006;2023-06-10T02:56:30;100301.63;;;15.64;100.00
24230;BME280;12362;50.004;8.006;2023-06-10T02:58:59;100297.22;;;15.65;100.00
24230;BME280;12362;50.004;8.006;2023-06-10T03:01:26;100302.59;;;15.51;100.00
24230;BME280;12362;50.004;8.006;2023-06-10T03:03:58;100303.44;;;15.39;100.00
24230;BME280;12362;50.004;8.006;2023-06-10T03:06:24;100298.00;;;15.30;100.00
24230;BME280;12362;50.004;8.006;2023-06-10T03:08:52;100303.38;;;15.28;100.00
24230;BME280;12362;50.004;8.006;2023-06-10T03:11:18;100301.47;;;15.30;100.00
24230;BME280;12362;50.004;8.006;2023-06-10T03:13:45;100304.19;;;15.29;100.00
24230;BME280;12362;50.004;8.006;2023-06-10T03:16:14;100299.81;;;15.29;100.00
24230;BME280;12362;50.004;8.006;2023-06-10T03:18:40;100306.28;;;15.24;100.00
24230;BME280;12362;50.004;8.006;2023-06-10T03:21:07;100308.97;;;15.22;100.00
24230;BME280;12362;50.004;8.006;2023-06-10T03:23:34;100311.41;;;15.25;100.00
24230;BME280;12362;50.004;8.006;2023-06-10T03:26:00;100302.63;;;15.26;100.00
24230;BME280;12362;50.004;8.006;2023-06-10T03:28:26;100310.38;;;15.28;100.00
24230;BME280;12362;50.004;8.006;2023-06-10T03:30:52;100301.34;;;15.19;100.00
24230;BME280;12362;50.004;8.006;2023-06-10T03:33:18;100305.41;;;15.23;100.00
24230;BME280;12362;50.004;8.006;2023-06-10T03:35:45;100308.47;;;15.30;100.00
24230;BME280;12362;50.004;8.006;2023-06-10T03:38:11;100305.44;;;15.36;100.00
24230;BME280;12362;50.004;8.006;2023-06-10T03:40:37;100306.09;;;15.27;100.00
24230;BME280;12362;50.004;8.006;2023-06-10T03:43:04;100300.75;;;15.28;100.00
24230;BME280;12362;50.004;8.006;2023-06-10T03:45:30;100302.91;;;15.34;100.00
24230;BME280;12362;50.004;8.006;2023-06-10T03:47:57;100309.22;;;15.44;100.00
24230;BME280;12362;50.004;8.006;2023-06-10T03:50:29;100312.31;;;15.61;100.00
24230;BME280;12362;50.004;8.006;2023-06-10T03:52:54;100315.97;;;15.71;100.00
24230;BME280;12362;50.004;8.006;2023-06-10T03:55:23;100323.00;;;15.94;100.00
24230;BME280;12362;50.004;8.006;2023-06-10T03:57:49;100320.13;;;15.86;100.00
24230;BME280;12362;50.004;8.006;2023-06-10T04:00:16;100325.34;;;15.86;100.00
24230;BME280;12362;50.004;8.006;2023-06-10T04:02:43;100323.81;;;15.71;100.00
24230;BME280;12362;50.004;8.006;2023-06-10T04:05:20;100323.81;;;15.59;100.00
24230;BME280;12362;50.004;8.006;2023-06-10T04:07:47;100329.47;;;15.65;100.00
24230;BME280;12362;50.004;8.006;2023-06-10T04:10:14;100327.16;;;15.73;100.00
24230;BME280;12362;50.004;8.006;2023-06-10T04:12:40;100321.06;;;15.85;100.00
24230;BME280;12362;50.004;8.006;2023-06-10T04:15:06;100325.28;;;15.99;100.00
24230;BME280;12362;50.004;8.006;2023-06-10T04:17:33;100324.13;;;16.03;100.00
24230;BME280;12362;50.004;8.006;2023-06-10T04:19:58;100322.53;;;16.13;100.00
24230;BME280;12362;50.004;8.006;2023-06-10T04:22:26;100325.41;;;16.21;100.00
24230;BME280;12362;50.004;8.006;2023-06-10T04:24:52;100322.06;;;16.31;100.00
24230;BME280;12362;50.004;8.006;2023-06-10T04:27:18;100315.41;;;16.38;100.00
24230;BME280;12362;50.004;8.006;2023-06-10T04:29:44;100328.16;;;16.42;100.00
24230;BME280;12362;50.004;8.006;2023-06-10T04:32:09;100324.16;;;16.49;100.00
24230;BME280;12362;50.004;8.006;2023-06-10T04:34:36;100322.41;;;16.61;100.00
24230;BME280;12362;50.004;8.006;2023-06-10T04:37:05;100316.78;;;16.89;100.00
24230;BME280;12362;50.004;8.006;2023-06-10T04:39:30;100323.13;;;17.08;100.00
24230;BME280;12362;50.004;8.006;2023-06-10T04:41:57;100325.03;;;17.17;100.00
24230;BME280;12362;50.004;8.006;2023-06-10T04:44:23;100318.13;;;17.27;100.00
24230;BME280;12362;50.004;8.006;2023-06-10T04:46:48;100317.81;;;17.42;100.00
24230;BME280;12362;50.004;8.006;2023-06-10T04:49:14;100321.50;;;17.51;100.00
24230;BME280;12362;50.004;8.006;2023-06-10T04:51:40;100319.72;;;17.62;100.00
24230;BME280;12362;50.004;8.006;2023-06-10T04:54:07;100321.13;;;17.77;100.00
24230;BME280;12362;50.004;8.006;2023-06-10T04:56:32;100317.28;;;17.92;100.00
24230;BME280;12362;50.004;8.006;2023-06-10T04:59:01;100317.59;;;18.10;100.00
24230;BME280;12362;50.004;8.006;2023-06-10T05:01:27;100317.94;;;18.27;100.00
24230;BME280;12362;50.004;8.006;2023-06-10T05:03:53;100318.75;;;18.38;100.00
24230;BME280;12362;50.004;8.006;2023-06-10T05:06:18;100318.44;;;18.52;100.00
24230;BME280;12362;50.004;8.006;2023-06-10T05:08:44;100318.13;;;18.66;100.00
24230;BME280;12362;50.004;8.006;2023-06-10T05:11:10;100317.94;;;18.79;100.00
24230;BME280;12362;50.004;8.006;2023-06-10T05:13:35;100316.06;;;18.90;100.00
24230;BME280;12362;50.004;8.006;2023-06-10T05:16:00;100312.63;;;19.10;100.00
24230;BME280;12362;50.004;8.006;2023-06-10T05:18:26;100315.38;;;19.29;100.00
24230;BME280;12362;50.004;8.006;2023-06-10T05:20:51;100314.16;;;19.42;100.00
24230;BME280;12362;50.004;8.006;2023-06-10T05:23:19;100308.69;;;19.55;100.00
24230;BME280;12362;50.004;8.006;2023-06-10T05:25:45;100306.53;;;19.69;100.00
24230;BME280;12362;50.004;8.006;2023-06-10T05:28:10;100303.91;;;19.79;100.00
24230;BME280;12362;50.004;8.006;2023-06-10T05:30:36;100300.47;;;19.88;100.00
24230;BME280;12362;50.004;8.006;2023-06-10T05:33:03;100308.44;;;19.97;100.00
24230;BME280;12362;50.004;8.006;2023-06-10T05:35:28;100297.91;;;20.16;100.00
24230;BME280;12362;50.004;8.006;2023-06-10T05:37:54;100295.56;;;20.32;100.00
24230;BME280;12362;50.004;8.006;2023-06-10T05:40:20;100291.25;;;20.50;100.00
24230;BME280;12362;50.004;8.006;2023-06-10T05:42:45;100290.72;;;20.65;100.00
24230;BME280;12362;50.004;8.006;2023-06-10T05:45:11;100298.75;;;20.73;100.00
24230;BME280;12362;50.004;8.006;2023-06-10T05:47:36;100288.66;;;20.78;100.00
24230;BME280;12362;50.004;8.006;2023-06-10T05:50:02;100301.25;;;20.75;100.00
24230;BME280;12362;50.004;8.006;2023-06-10T05:52:33;100299.31;;;20.96;100.00
24230;BME280;12362;50.004;8.006;2023-06-10T05:54:58;100302.16;;;21.21;100.00
24230;BME280;12362;50.004;8.006;2023-06-10T05:57:24;100300.13;;;21.42;100.00
24230;BME280;12362;50.004;8.006;2023-06-10T05:59:50;100294.13;;;21.59;100.00
24230;BME280;12362;50.004;8.006;2023-06-10T06:02:15;100304.03;;;21.74;100.00
24230;BME280;12362;50.004;8.006;2023-06-10T06:04:41;100301.13;;;21.77;100.00
24230;BME280;12362;50.004;8.006;2023-06-10T06:07:06;100297.75;;;21.85;100.00
24230;BME280;12362;50.004;8.006;2023-06-10T06:09:32;100295.56;;;22.15;100.00
24230;BME280;12362;50.004;8.006;2023-06-10T06:11:57;100290.41;;;22.40;100.00
24230;BME280;12362;50.004;8.006;2023-06-10T06:14:22;100286.78;;;22.84;100.00
24230;BME280;12362;50.004;8.006;2023-06-10T06:16:48;100293.84;;;23.18;96.56
24230;BME280;12362;50.004;8.006;2023-06-10T06:19:13;100287.81;;;23.67;93.37
24230;BME280;12362;50.004;8.006;2023-06-10T06:21:39;100288.72;;;23.91;89.72
24230;BME280;12362;50.004;8.006;2023-06-10T06:24:05;100279.53;;;24.19;86.73
24230;BME280;12362;50.004;8.006;2023-06-10T06:26:30;100280.00;;;24.31;84.21
24230;BME280;12362;50.004;8.006;2023-06-10T06:28:56;100276.56;;;24.70;83.29
24230;BME280;12362;50.004;8.006;2023-06-10T06:31:21;100274.72;;;25.10;78.98
24230;BME280;12362;50.004;8.006;2023-06-10T06:33:46;100272.72;;;25.20;76.40
24230;BME280;12362;50.004;8.006;2023-06-10T06:36:12;100277.34;;;25.73;73.58
24230;BME280;12362;50.004;8.006;2023-06-10T06:38:37;100275.28;;;25.90;69.85
24230;BME280;12362;50.004;8.006;2023-06-10T06:41:03;100274.47;;;26.43;68.53
24230;BME280;12362;50.004;8.006;2023-06-10T06:43:31;100270.09;;;26.50;67.82
24230;BME280;12362;50.004;8.006;2023-06-10T06:46:22;100269.59;;;26.69;66.40
24230;BME280;12362;50.004;8.006;2023-06-10T06:48:48;100274.59;;;27.00;69.13
24230;BME280;12362;50.004;8.006;2023-06-10T06:51:13;100274.22;;;27.40;67.71
24230;BME280;12362;50.004;8.006;2023-06-10T06:53:39;100271.16;;;27.72;64.17
24230;BME280;12362;50.004;8.006;2023-06-10T06:56:10;100273.38;;;27.68;61.06
24230;BME280;12362;50.004;8.006;2023-06-10T06:58:35;100270.72;;;27.68;61.10
24230;BME280;12362;50.004;8.006;2023-06-10T07:01:01;100263.88;;;28.16;60.76
24230;BME280;12362;50.004;8.006;2023-06-10T07:03:26;100262.66;;;28.33;57.25
24230;BME280;12362;50.004;8.006;2023-06-10T07:05:52;100273.25;;;28.26;56.56
24230;BME280;12362;50.004;8.006;2023-06-10T07:08:17;100276.09;;;27.89;57.21
24230;BME280;12362;50.004;8.006;2023-06-10T07:10:43;100272.72;;;28.16;54.44
24230;BME280;12362;50.004;8.006;2023-06-10T07:13:08;100270.00;;;28.72;52.87
24230;BME280;12362;50.004;8.006;2023-06-10T07:15:33;100276.91;;;28.40;52.87
24230;BME280;12362;50.004;8.006;2023-06-10T07:17:59;100273.78;;;28.57;53.02
24230;BME280;12362;50.004;8.006;2023-06-10T07:20:24;100275.75;;;29.18;58.07
24230;BME280;12362;50.004;8.006;2023-06-10T07:22:50;100277.75;;;29.43;53.13
24230;BME280;12362;50.004;8.006;2023-06-10T07:25:15;100280.03;;;29.86;54.02
24230;BME280;12362;50.004;8.006;2023-06-10T07:27:41;100274.06;;;29.44;55.60
24230;BME280;12362;50.004;8.006;2023-06-10T07:30:07;100275.81;;;29.64;53.72
24230;BME280;12362;50.004;8.006;2023-06-10T07:32:33;100267.22;;;29.75;52.65
24230;BME280;12362;50.004;8.006;2023-06-10T07:34:59;100274.63;;;29.73;49.19
24230;BME280;12362;50.004;8.006;2023-06-10T07:37:24;100271.25;;;30.05;48.05
24230;BME280;12362;50.004;8.006;2023-06-10T07:39:50;100279.22;;;29.18;47.27
24230;BME280;12362;50.004;8.006;2023-06-10T07:42:15;100281.59;;;29.68;53.59
24230;BME280;12362;50.004;8.006;2023-06-10T07:44:41;100263.34;;;30.63;52.30
24230;BME280;12362;50.004;8.006;2023-06-10T07:47:06;100263.28;;;30.38;49.97
24230;BME280;12362;50.004;8.006;2023-06-10T07:49:32;100262.94;;;30.60;47.61
24230;BME280;12362;50.004;8.006;2023-06-10T07:51:57;100269.94;;;30.87;46.32
24230;BME280;12362;50.004;8.006;2023-06-10T07:54:23;100258.16;;;31.27;45.67
24230;BME280;12362;50.004;8.006;2023-06-10T07:56:48;100258.88;;;31.53;45.49
24230;BME280;12362;50.004;8.006;2023-06-10T07:59:14;100263.94;;;30.91;43.53
24230;BME280;12362;50.004;8.006;2023-06-10T08:01:39;100259.66;;;30.77;45.98
24230;BME280;12362;50.004;8.006;2023-06-10T08:04:06;100265.41;;;30.74;45.59
24230;BME280;12362;50.004;8.006;2023-06-10T08:06:31;100254.06;;;30.59;43.97
24230;BME280;12362;50.004;8.006;2023-06-10T08:08:57;100256.13;;;31.16;43.63
24230;BME280;12362;50.004;8.006;2023-06-10T08:11:22;100257.97;;;31.02;43.39
24230;BME280;12362;50.004;8.006;2023-06-10T08:13:48;100257.19;;;31.71;45.91
24230;BME280;12362;50.004;8.006;2023-06-10T08:16:13;100253.53;;;31.47;42.22
24230;BME280;12362;50.004;8.006;2023-06-10T08:18:39;100255.66;;;31.32;46.04
24230;BME280;12362;50.004;8.006;2023-06-10T08:21:06;100247.19;;;32.29;45.13
24230;BME280;12362;50.004;8.006;2023-06-10T08:23:31;100243.72;;;32.52;41.00
24230;BME280;12362;50.004;8.006;2023-06-10T08:25:57;100254.94;;;32.19;41.98
24230;BME280;12362;50.004;8.006;2023-06-10T08:28:23;100259.47;;;31.74;46.10
24230;BME280;12362;50.004;8.006;2023-06-10T08:30:48;100263.97;;;31.80;41.69
24230;BME280;12362;50.004;8.006;2023-06-10T08:33:14;100254.09;;;32.18;41.70
24230;BME280;12362;50.004;8.006;2023-06-10T08:35:39;100254.69;;;33.00;41.96
24230;BME280;12362;50.004;8.006;2023-06-10T08:38:05;100247.69;;;32.74;43.02
24230;BME280;12362;50.004;8.006;2023-06-10T08:40:30;100248.22;;;33.32;40.28
24230;BME280;12362;50.004;8.006;2023-06-10T08:43:08;100254.44;;;33.08;39.42
24230;BME280;12362;50.004;8.006;2023-06-10T08:45:36;100249.22;;;32.88;39.29
24230;BME280;12362;50.004;8.006;2023-06-10T08:48:05;100245.78;;;33.24;39.29
24230;BME280;12362;50.004;8.006;2023-06-10T08:50:36;100247.28;;;33.38;38.73
24230;BME280;12362;50.004;8.006;2023-06-10T08:53:05;100242.16;;;33.72;39.16
24230;BME280;12362;50.004;8.006;2023-06-10T08:55:38;100243.22;;;33.11;40.74
24230;BME280;12362;50.004;8.006;2023-06-10T08:58:07;100247.59;;;33.30;39.05
24230;BME280;12362;50.004;8.006;2023-06-10T09:00:34;100246.91;;;33.34;40.51
24230;BME280;12362;50.004;8.006;2023-06-10T09:03:00;100243.06;;;32.57;40.81
24230;BME280;12362;50.004;8.006;2023-06-10T09:05:28;100249.91;;;33.26;38.78
24230;BME280;12362;50.004;8.006;2023-06-10T09:07:57;100241.81;;;33.80;38.41
24230;BME280;12362;50.004;8.006;2023-06-10T09:10:22;100237.66;;;33.66;40.46
24230;BME280;12362;50.004;8.006;2023-06-10T09:12:48;100236.31;;;34.34;40.48
24230;BME280;12362;50.004;8.006;2023-06-10T09:15:13;100225.84;;;34.66;40.94
24230;BME280;12362;50.004;8.006;2023-06-10T09:17:40;100225.34;;;34.58;40.42
24230;BME280;12362;50.004;8.006;2023-06-10T09:20:07;100227.13;;;34.64;37.61
24230;BME280;12362;50.004;8.006;2023-06-10T09:22:33;100225.13;;;34.59;39.44
24230;BME280;12362;50.004;8.006;2023-06-10T09:25:12;100224.31;;;34.59;38.33
24230;BME280;12362;50.004;8.006;2023-06-10T09:27:48;100237.13;;;33.75;40.37
24230;BME280;12362;50.004;8.006;2023-06-10T09:30:25;100222.25;;;34.43;37.81
24230;BME280;12362;50.004;8.006;2023-06-10T09:32:59;100222.59;;;34.35;39.39
24230;BME280;12362;50.004;8.006;2023-06-10T09:35:26;100221.50;;;34.88;38.32
24230;BME280;12362;50.004;8.006;2023-06-10T09:37:53;100219.03;;;34.98;37.75
24230;BME280;12362;50.004;8.006;2023-06-10T09:40:19;100226.19;;;34.70;36.32
24230;BME280;12362;50.004;8.006;2023-06-10T09:42:44;100221.59;;;34.59;36.94
24230;BME280;12362;50.004;8.006;2023-06-10T09:45:10;100225.88;;;33.78;38.11
24230;BME280;12362;50.004;8.006;2023-06-10T09:47:35;100221.13;;;34.10;37.84
24230;BME280;12362;50.004;8.006;2023-06-10T09:50:01;100218.59;;;34.38;36.73
24230;BME280;12362;50.004;8.006;2023-06-10T09:52:29;100216.16;;;34.36;37.73
24230;BME280;12362;50.004;8.006;2023-06-10T09:54:59;100210.41;;;34.44;37.32
24230;BME280;12362;50.004;8.006;2023-06-10T09:57:25;100210.25;;;34.68;36.92
24230;BME280;12362;50.004;8.006;2023-06-10T09:59:54;100206.91;;;35.46;35.20
24230;BME280;12362;50.004;8.006;2023-06-10T10:02:20;100212.34;;;34.66;35.20
24230;BME280;12362;50.004;8.006;2023-06-10T10:04:46;100216.16;;;34.47;34.93
24230;BME280;12362;50.004;8.006;2023-06-10T10:07:12;100215.41;;;34.70;37.66
24230;BME280;12362;50.004;8.006;2023-06-10T10:09:39;100217.75;;;34.66;36.80
24230;BME280;12362;50.004;8.006;2023-06-10T10:12:13;100214.22;;;34.66;37.55
24230;BME280;12362;50.004;8.006;2023-06-10T10:14:45;100202.44;;;35.40;36.86
24230;BME280;12362;50.004;8.006;2023-06-10T10:17:11;100206.97;;;35.12;36.32
24230;BME280;12362;50.004;8.006;2023-06-10T10:19:51;100209.53;;;34.96;37.15
24230;BME280;12362;50.004;8.006;2023-06-10T10:22:25;100211.28;;;34.90;37.30
24230;BME280;12362;50.004;8.006;2023-06-10T10:25:02;100201.19;;;35.71;36.08
24230;BME280;12362;50.004;8.006;2023-06-10T10:27:44;100210.66;;;35.34;35.95
24230;BME280;12362;50.004;8.006;2023-06-10T10:30:11;100212.47;;;34.83;36.48
24230;BME280;12362;50.004;8.006;2023-06-10T10:32:45;100205.22;;;35.57;34.98
24230;BME280;12362;50.004;8.006;2023-06-10T10:35:21;100209.16;;;35.38;36.48
24230;BME280;12362;50.004;8.006;2023-06-10T10:37:51;100209.66;;;35.12;35.93
24230;BME280;12362;50.004;8.006;2023-06-10T10:40:17;100211.03;;;34.69;37.76
24230;BME280;12362;50.004;8.006;2023-06-10T10:42:43;100205.31;;;35.11;33.87
24230;BME280;12362;50.004;8.006;2023-06-10T10:45:09;100211.06;;;35.26;36.45
24230;BME280;12362;50.004;8.006;2023-06-10T10:47:36;100204.72;;;35.21;36.73
24230;BME280;12362;50.004;8.006;2023-06-10T10:50:13;100202.53;;;35.45;36.43
24230;BME280;12362;50.004;8.006;2023-06-10T10:52:58;100213.41;;;35.00;36.36
24230;BME280;12362;50.004;8.006;2023-06-10T10:55:25;100189.63;;;35.87;35.72
24230;BME280;12362;50.004;8.006;2023-06-10T11:00:30;100189.94;;;36.18;34.50
24230;BME280;12362;50.004;8.006;2023-06-10T11:03:04;100187.88;;;36.25;34.36
24230;BME280;12362;50.004;8.006;2023-06-10T11:07:57;100175.53;;;36.62;35.46
24230;BME280;12362;50.004;8.006;2023-06-10T11:10:34;100180.41;;;36.32;32.59
24230;BME280;12362;50.004;8.006;2023-06-10T11:13:00;100183.38;;;35.86;33.01
24230;BME280;12362;50.004;8.006;2023-06-10T11:15:28;100182.16;;;35.66;35.60
24230;BME280;12362;50.004;8.006;2023-06-10T11:18:13;100171.78;;;36.84;32.92
24230;BME280;12362;50.004;8.006;2023-06-10T11:29:00;100164.00;;;35.78;34.37
24230;BME280;12362;50.004;8.006;2023-06-10T11:31:28;100181.59;;;35.64;34.80
24230;BME280;12362;50.004;8.006;2023-06-10T11:33:58;100169.59;;;36.16;33.58
24230;BME280;12362;50.004;8.006;2023-06-10T11:36:25;100166.72;;;36.38;34.14
24230;BME280;12362;50.004;8.006;2023-06-10T11:38:59;100156.97;;;36.54;33.46
24230;BME280;12362;50.004;8.006;2023-06-10T11:41:26;100156.44;;;36.52;32.37
24230;BME280;12362;50.004;8.006;2023-06-10T11:43:53;100165.25;;;35.70;35.04
24230;BME280;12362;50.004;8.006;2023-06-10T11:46:21;100167.38;;;35.57;34.72
24230;BME280;12362;50.004;8.006;2023-06-10T11:48:52;100158.63;;;36.55;33.59
24230;BME280;12362;50.004;8.006;2023-06-10T11:51:18;100155.66;;;36.73;34.80
24230;BME280;12362;50.004;8.006;2023-06-10T11:53:48;100155.53;;;36.46;32.91
24230;BME280;12362;50.004;8.006;2023-06-10T11:56:19;100150.91;;;36.14;34.28
24230;BME280;12362;50.004;8.006;2023-06-10T11:58:45;100169.47;;;34.93;35.57
24230;BME280;12362;50.004;8.006;2023-06-10T12:01:10;100160.47;;;34.99;34.89
24230;BME280;12362;50.004;8.006;2023-06-10T12:03:37;100144.66;;;36.30;33.54
24230;BME280;12362;50.004;8.006;2023-06-10T12:06:06;100140.72;;;36.37;33.64
24230;BME280;12362;50.004;8.006;2023-06-10T12:08:32;100141.09;;;37.17;34.10
24230;BME280;12362;50.004;8.006;2023-06-10T12:10:58;100134.59;;;36.58;31.54
24230;BME280;12362;50.004;8.006;2023-06-10T12:13:27;100145.28;;;35.88;33.69
24230;BME280;12362;50.004;8.006;2023-06-10T12:15:53;100134.66;;;36.14;34.79
24230;BME280;12362;50.004;8.006;2023-06-10T12:18:23;100137.13;;;36.65;31.93
24230;BME280;12362;50.004;8.006;2023-06-10T12:20:49;100144.19;;;35.89;33.03
24230;BME280;12362;50.004;8.006;2023-06-10T12:23:16;100134.91;;;36.62;34.03
24230;BME280;12362;50.004;8.006;2023-06-10T12:25:53;100132.22;;;37.21;30.43
24230;BME280;12362;50.004;8.006;2023-06-10T12:28:23;100126.16;;;37.57;33.42
24230;BME280;12362;50.004;8.006;2023-06-10T12:30:49;100132.19;;;37.16;33.21
24230;BME280;12362;50.004;8.006;2023-06-10T12:33:21;100123.56;;;36.81;31.86
24230;BME280;12362;50.004;8.006;2023-06-10T12:35:51;100127.34;;;37.66;31.62
24230;BME280;12362;50.004;8.006;2023-06-10T12:38:21;100130.06;;;37.02;31.15
24230;BME280;12362;50.004;8.006;2023-06-10T12:40:47;100123.72;;;36.91;31.08
24230;BME280;12362;50.004;8.006;2023-06-10T12:43:13;100124.56;;;36.42;32.24
24230;BME280;12362;50.004;8.006;2023-06-10T12:45:39;100132.72;;;35.82;33.31
24230;BME280;12362;50.004;8.006;2023-06-10T12:48:10;100113.00;;;36.63;33.55
24230;BME280;12362;50.004;8.006;2023-06-10T12:50:40;100103.19;;;37.91;30.25
24230;BME280;12362;50.004;8.006;2023-06-10T12:53:06;100107.47;;;37.60;31.64
24230;BME280;12362;50.004;8.006;2023-06-10T12:55:33;100116.31;;;36.33;30.58
24230;BME280;12362;50.004;8.006;2023-06-10T12:57:59;100113.53;;;36.82;32.73
24230;BME280;12362;50.004;8.006;2023-06-10T13:00:25;100114.31;;;37.63;29.82
24230;BME280;12362;50.004;8.006;2023-06-10T13:02:52;100113.47;;;37.62;28.29